Terminal Aerodrome Forecast
Issued by NWS

Home | Current Version | Previous Version | Text Only | Print | Product List | Glossary On
Versions: 1 2 3 4 5 6 7 8 9 10 11 12 13 14 15
000
FTUS45 KVEF 070534
TAFEED
TAF
KEED 070534Z 0706/0806 23010KT P6SM SKC
     FM071600 17010KT P6SM SKC
     FM071800 20018G26KT P6SM FEW120=

USA.gov is the U.S. government's official web portal to all federal, state and local government web resources and services.